Ask Your Question

jconto's profile - karma

jconto's karma change log

10 0 Open IEEE Power Flow Data file (.dat) ( 2019-04-11 05:30:51 -0500 )

10 0 Question about user models of Library and of users models in PSSE ( 2019-03-27 03:04:18 -0500 )

15 0 Complex generation: get the Real par and Imagine part ( 2019-01-24 02:34:47 -0500 )

0 -15 Complex generation: get the Real par and Imagine part ( 2019-01-24 02:34:43 -0500 )

15 0 Complex generation: get the Real par and Imagine part ( 2019-01-24 02:34:41 -0500 )

0 -15 Complex generation: get the Real par and Imagine part ( 2019-01-24 02:29:02 -0500 )

10 0 Complex generation: get the Real par and Imagine part ( 2019-01-24 01:30:51 -0500 )

15 0 Complex generation: get the Real par and Imagine part ( 2019-01-24 01:30:04 -0500 )

10 0 Psspy library error for psse34 ( 2019-01-15 20:45:40 -0500 )

10 0 Example using PLBVFU1 playback generator ( 2018-12-26 12:57:55 -0500 )

15 0 "Connection Tables Full" when running dyre for dynamic simulation ( 2018-12-13 13:11:41 -0500 )

10 0 "Connection Tables Full" when running dyre for dynamic simulation ( 2018-12-13 13:11:39 -0500 )

15 0 Example of user-written dynamic model? ( 2018-11-01 09:44:42 -0500 )

15 0 Problems running large number of simulations using same raw and dyr file ( 2018-10-27 12:20:01 -0500 )

10 0 Short Circuit Current Use psse dynamic simulation and IEC module (psse34) ( 2018-10-17 22:46:04 -0500 )

10 0 PSSE 33.12 dyntools pssplotc issue ( 2018-10-05 09:32:15 -0500 )

10 0 psspy.runrspnsfile(Idev_file) ( 2018-09-13 13:47:56 -0500 )

15 0 PSSE 33.12 dyntools pssplotc issue ( 2018-09-11 20:51:38 -0500 )

10 0 PSSE 33.12 dyntools pssplotc issue ( 2018-09-11 20:04:45 -0500 )

15 0 Multi-Threading using xlsout ( 2018-08-20 22:33:11 -0500 )

0 -15 Multi-Threading using xlsout ( 2018-08-20 22:33:05 -0500 )

15 0 Multi-Threading using xlsout ( 2018-08-20 22:33:03 -0500 )

10 0 Multi-Threading using xlsout ( 2018-08-17 15:44:58 -0500 )

10 0 How to get PLBVFU1 to do frequency and voltage change inside script ( 2018-06-21 19:20:50 -0500 )

0 -10 How to get PLBVFU1 to do frequency and voltage change inside script ( 2018-06-21 19:20:49 -0500 )

10 0 How to get PLBVFU1 to do frequency and voltage change inside script ( 2018-06-21 19:20:46 -0500 )

15 0 How to get PLBVFU1 to do frequency and voltage change inside script ( 2018-06-21 19:20:44 -0500 )

10 0 Perform frequency scan using Thevenin impedance ( 2018-04-22 22:44:13 -0500 )

10 0 Quantiative criteria for instability system ( 2018-04-19 03:23:31 -0500 )

10 0 Renewable Plant Modeling - Solar PV - Wind ( 2018-04-16 03:34:26 -0500 )

10 0 import psse to python ( 2018-03-27 21:04:51 -0500 )

2 0 Power flowing in opposite direction ( 2018-03-26 19:37:05 -0500 )

0 -2 Power flowing in opposite direction ( 2018-01-14 05:32:20 -0500 )

10 0 Running a separate .py file from python script ( 2018-01-04 16:06:38 -0500 )

15 0 Dynamic simulation using dynamic load model CMLDBLU1 ( 2017-10-31 17:45:29 -0500 )

15 0 Extract data with dyntools and plot with matplotlib ( 2017-09-05 12:39:07 -0500 )

0 -15 Extract data with dyntools and plot with matplotlib ( 2017-09-05 12:38:55 -0500 )

15 0 Extract data with dyntools and plot with matplotlib ( 2017-09-05 12:24:32 -0500 )

15 0 How to create a subsystem of transmission lines whose "From bus", "To bus" and Circuit ID are known ( 2017-08-22 11:22:59 -0500 )

10 0 Channels - tool to process outs files ( 2017-08-07 08:31:35 -0500 )

15 0 Run program automation file ( 2017-07-31 00:53:27 -0500 )

0 -15 Run program automation file ( 2017-07-31 00:53:26 -0500 )

15 0 Run program automation file ( 2017-07-31 00:53:25 -0500 )

15 0 About psse v33 to excel ( 2017-07-28 04:14:26 -0500 )

15 0 PSSE 33.9 vs 33.10 Dynamics Simulation Results Mismatch ( 2017-07-06 12:37:34 -0500 )

10 0 Exporting PV curve data from PSS/E to excel ( 2017-06-09 21:26:23 -0500 )

15 0 Open IEEE Power Flow Data file (.dat) ( 2017-05-14 15:10:44 -0500 )

10 0 Open IEEE Power Flow Data file (.dat) ( 2017-05-11 00:42:49 -0500 )

15 0 Error using python to apply bus fault ( 2017-04-01 02:09:34 -0500 )

15 0 Error running PSSE from Python ( 2017-03-31 22:41:25 -0500 )

0 -15 Error running PSSE from Python ( 2017-03-31 22:41:22 -0500 )

15 0 Error running PSSE from Python ( 2017-03-31 22:41:22 -0500 )

15 0 Is it possible to disable a machine in a dynamic composite load model while running dynamic simulation? ( 2017-01-27 00:34:59 -0500 )

0 -15 How can I get the output data from bus_frequency_channel. ( 2017-01-23 20:11:00 -0500 )

15 0 How can I get the output data from bus_frequency_channel. ( 2017-01-23 20:10:43 -0500 )

10 0 How can I get the output data from bus_frequency_channel. ( 2017-01-18 01:09:36 -0500 )

15 0 How to choose the transfer dispatch method for pv analysis? ( 2017-01-17 16:10:51 -0500 )

15 0 Convert python to idv. ( 2017-01-08 21:09:57 -0500 )

15 0 Controller designed for converter interfaced generation in PSS/E33 ( 2016-12-29 10:55:42 -0500 )

0 -15 Controller designed for converter interfaced generation in PSS/E33 ( 2016-12-29 10:55:34 -0500 )

15 0 Controller designed for converter interfaced generation in PSS/E33 ( 2016-12-29 10:53:56 -0500 )

0 -15 How to trip one winding in a 3-winding transformer? ( 2016-10-03 09:58:46 -0500 )

15 0 How to get psse output to Excel? ( 2016-09-13 00:37:11 -0500 )

10 0 psspy module not found in PSS/E 34 ( 2016-08-08 06:32:22 -0500 )

0 -2 Problems with Python/PSSPY - new instalation PSSE v34 ( 2016-08-01 20:13:31 -0500 )

15 0 Selecting data to send to Excel - set_range ( 2016-07-13 17:32:04 -0500 )

10 0 Selecting data to send to Excel - set_range ( 2016-07-13 17:31:44 -0500 )

0 -15 Multiple simulations, strt command and .OUT files ( 2016-06-03 10:55:27 -0500 )

15 0 Multiple simulations, strt command and .OUT files ( 2016-06-01 20:16:35 -0500 )

15 0 Creating Contingency Solution Output File for PSS/E ( 2016-02-03 14:16:25 -0500 )

10 0 Infinite Generator ( 2015-12-17 23:13:44 -0500 )

10 0 Please, help me solve this problem to enable me do my load flow studies ( 2015-12-15 21:50:19 -0500 )

15 0 Dynamics blowing up during flat start ( 2015-12-15 21:48:05 -0500 )

10 0 Dynamics blowing up during flat start ( 2015-12-15 21:48:03 -0500 )

10 0 Please, help me solve this problem to enable me do my load flow studies ( 2015-12-07 13:50:31 -0500 )

0 -10 Please, help me solve this problem to enable me do my load flow studies ( 2015-12-07 13:50:29 -0500 )

10 0 Please, help me solve this problem to enable me do my load flow studies ( 2015-12-07 13:50:28 -0500 )

15 0 psspy module not found in PSS/E 34 ( 2015-11-23 19:55:12 -0500 )

10 0 psspy module not found in PSS/E 34 ( 2015-11-23 19:55:10 -0500 )

10 0 Dynamics blowing up during flat start ( 2015-11-20 01:24:28 -0500 )

10 0 Dynamics blowing up during flat start ( 2015-11-19 19:06:59 -0500 )

10 0 psspy module not found in PSS/E 34 ( 2015-11-08 21:44:04 -0500 )

10 0 How to trip one winding in a 3-winding transformer? ( 2015-10-30 16:53:54 -0500 )

10 0 Infinite Generator ( 2015-10-23 12:09:33 -0500 )

15 0 How to trip one winding in a 3-winding transformer? ( 2015-10-23 10:30:11 -0500 )

15 0 Infinite Generator ( 2015-10-09 18:23:45 -0500 )

10 0 Infinite Generator ( 2015-10-09 18:23:42 -0500 )

10 0 PSS/e Time Step Variable ( 2015-10-05 21:00:44 -0500 )

0 -10 PSS/e Time Step Variable ( 2015-10-05 21:00:43 -0500 )

10 0 Python API to return Power variables (Dynamic Sim.) ( 2015-09-30 18:30:32 -0500 )

10 0 PSS/e Time Step Variable ( 2015-09-30 18:30:19 -0500 )

15 0 Python API to return Power variables (Dynamic Sim.) ( 2015-09-30 14:59:17 -0500 )

15 0 PSS/e Time Step Variable ( 2015-09-25 15:36:55 -0500 )

10 0 How to change the value of reactive power of shunt compensators? ( 2015-09-25 02:25:39 -0500 )

10 0 Combining .sav files in PSSE ( 2015-09-13 22:19:16 -0500 )

15 0 Stop power flow calculations and recover solution if model blows up ( 2015-09-13 09:43:47 -0500 )

10 0 Stop power flow calculations and recover solution if model blows up ( 2015-09-13 09:43:47 -0500 )

15 0 the new version of PSSE software ( 2015-08-26 15:05:26 -0500 )

0 -5 the new version of PSSE software ( 2015-08-26 15:03:48 -0500 )

15 0 the new version of PSSE software ( 2015-08-26 15:03:47 -0500 )

15 0 Case opening file dir ( 2015-07-27 00:29:46 -0500 )

10 0 can someone please share the IEEE 9 bus system^s matlab code finding any fault current ( 2015-06-30 00:44:08 -0500 )

0 -2 Suppressing some PSSE output permanently suppresses all output ( 2015-06-10 20:54:39 -0500 )

10 0 Optimal Capacitor Placement ( 2015-05-26 00:30:17 -0500 )

15 0 Python Parallel Dynamics Simulations ( 2015-04-16 08:21:09 -0500 )

0 -5 Python Parallel Dynamics Simulations ( 2015-04-16 08:16:06 -0500 )

15 0 Python Parallel Dynamics Simulations ( 2015-04-16 08:16:05 -0500 )

10 0 Plot multiple PSSE "out" files ( 2015-03-31 15:53:48 -0500 )

10 0 System instability ( 2015-03-31 15:40:54 -0500 )

10 0 Version issue in the PSS/e dynamic model !!! ( 2015-03-31 15:05:48 -0500 )

15 0 CHKPRG Error, Bad revision number ( 2015-02-27 09:58:36 -0500 )

10 0 System instability ( 2015-02-25 19:31:47 -0500 )

15 0 Open several psspy-instances from Python ( 2015-02-23 05:51:15 -0500 )

10 0 Open several psspy-instances from Python ( 2015-02-23 05:51:12 -0500 )

0 -10 How to use python to scale the system load in psse? ( 2015-01-07 03:04:28 -0500 )

10 0 How to use python to scale the system load in psse? ( 2015-01-07 03:04:27 -0500 )

10 0 how to close progress_output file without closing pss/e ( 2015-01-04 19:11:12 -0500 )

10 0 Frequency response ( 2014-12-18 23:25:35 -0500 )

10 0 Frequency response ( 2014-12-18 00:35:22 -0500 )

0 -10 Frequency response ( 2014-12-18 00:35:09 -0500 )

10 0 Frequency response ( 2014-12-18 00:35:06 -0500 )

10 0 Problem about QV analysis for buses having switched shunts ( 2014-11-02 20:44:13 -0500 )

10 0 Problem about QV analysis for buses having switched shunts ( 2014-10-31 09:51:55 -0500 )

15 0 Problem about QV analysis for buses having switched shunts ( 2014-10-31 09:51:53 -0500 )

0 -10 Problem about QV analysis for buses having switched shunts ( 2014-10-31 00:54:59 -0500 )

10 0 Problem about QV analysis for buses having switched shunts ( 2014-10-31 00:54:30 -0500 )

10 0 Which is prefer fault calculation tool we should use as operator ASCC or IEC ? ( 2014-10-29 06:45:52 -0500 )

15 0 How to use python to scale the system load in psse? ( 2014-10-29 03:51:35 -0500 )

0 -5 How to use python to scale the system load in psse? ( 2014-10-29 03:51:30 -0500 )

15 0 How to use python to scale the system load in psse? ( 2014-10-29 03:51:28 -0500 )

10 0 IEEE 39 BUS DYNAMIC SIMULATION IN PSSE ( 2014-10-29 03:48:00 -0500 )

10 0 Which is prefer fault calculation tool we should use as operator ASCC or IEC ? ( 2014-10-29 00:45:39 -0500 )

10 0 How to plot Fault current waveform in PSSE ( 2014-10-28 04:52:46 -0500 )

10 0 Dynamic data for IEEE 9 bus ( 2014-10-12 22:59:45 -0500 )

15 0 Dynamic data for IEEE 9 bus ( 2014-10-12 19:17:26 -0500 )

15 0 dynamic simulation - linear analysis - PSS/E ( 2014-10-01 02:18:19 -0500 )

10 0 dynamic simulation - linear analysis - PSS/E ( 2014-10-01 02:18:18 -0500 )

0 -10 dynamic simulation - linear analysis - PSS/E ( 2014-10-01 02:18:17 -0500 )

0 -5 dynamic simulation - linear analysis - PSS/E ( 2014-10-01 02:16:24 -0500 )

10 0 dynamic simulation - linear analysis - PSS/E ( 2014-10-01 02:16:22 -0500 )

0 -10 dynamic simulation - linear analysis - PSS/E ( 2014-10-01 02:16:20 -0500 )

15 0 dynamic simulation - linear analysis - PSS/E ( 2014-10-01 02:16:17 -0500 )

10 0 dynamic simulation - linear analysis - PSS/E ( 2014-10-01 02:16:14 -0500 )

0 -5 dynamic simulation - linear analysis - PSS/E ( 2014-10-01 02:16:06 -0500 )

15 0 dynamic simulation - linear analysis - PSS/E ( 2014-10-01 02:16:04 -0500 )

10 0 Hello guys could anyone can tell me whats wrong with this program? ( 2014-09-29 20:30:02 -0500 )

15 0 Hello guys could anyone can tell me whats wrong with this program? ( 2014-09-29 06:55:24 -0500 )

0 -5 Hello guys could anyone can tell me whats wrong with this program? ( 2014-09-29 06:55:22 -0500 )

15 0 Hello guys could anyone can tell me whats wrong with this program? ( 2014-09-29 06:55:19 -0500 )

10 0 Problems stopping PSS/E while running dynamic simulation ( 2014-09-18 22:03:28 -0500 )

0 -10 Problems stopping PSS/E while running dynamic simulation ( 2014-09-18 22:03:24 -0500 )

0 -5 Problems stopping PSS/E while running dynamic simulation ( 2014-09-18 05:41:57 -0500 )

15 0 Problems stopping PSS/E while running dynamic simulation ( 2014-09-18 05:41:53 -0500 )

0 -5 Problems stopping PSS/E while running dynamic simulation ( 2014-09-18 05:41:52 -0500 )

15 0 Problems stopping PSS/E while running dynamic simulation ( 2014-09-18 05:41:50 -0500 )

0 -2 Commands to output branch data in PSSE 32 ( 2014-08-29 20:57:58 -0500 )

10 0 Weird bug in user defined contingency list ( 2014-08-26 02:16:12 -0500 )

10 0 Is there way to identify all radial lines through PSS\E+Python? ( 2014-08-20 09:44:48 -0500 )

10 0 MemoryError for running module "pssarrays.accc_violations_report" ( 2014-08-14 21:51:14 -0500 )

15 0 How to relate power flow solution to a subsequent contingency analysis process? ( 2014-08-13 21:56:35 -0500 )

15 0 Is my understanding correct about creating the distribution factor file? ( 2014-08-13 21:56:06 -0500 )

10 0 Is my understanding correct about creating the distribution factor file? ( 2014-08-13 13:21:28 -0500 )

10 0 How to use python to scale the system load in psse? ( 2014-08-05 17:11:09 -0500 )

10 0 power flow ( 2014-08-03 20:26:54 -0500 )

10 0 Model writing using Python ( 2014-08-03 20:26:24 -0500 )

10 0 How to relate power flow solution to a subsequent contingency analysis process? ( 2014-07-20 17:11:51 -0500 )

10 0 How to relate power flow solution to a subsequent contingency analysis process? ( 2014-07-19 15:47:06 -0500 )

10 0 How to use python to scale the system load in psse? ( 2014-07-19 15:39:39 -0500 )

10 0 power flow ( 2014-07-16 02:16:11 -0500 )

10 0 Can someone please share the IEEE 9 bus system data, including generator and load data. ( 2014-06-09 19:44:12 -0500 )

10 0 How to interrupt loads below a given bus voltage threshold in PSS\E using python ( 2014-06-04 21:27:53 -0500 )

15 0 how find optimal location of FCATS in PSSE? ( 2014-04-09 14:28:33 -0500 )

10 0 How PV analysis work? ( 2014-04-03 01:19:21 -0500 )

10 0 Problems stopping PSS/E while running dynamic simulation ( 2014-03-30 23:33:36 -0500 )

0 -10 Problems stopping PSS/E while running dynamic simulation ( 2014-03-30 23:33:32 -0500 )

10 0 Problems stopping PSS/E while running dynamic simulation ( 2014-03-30 23:33:31 -0500 )

0 -10 Problems stopping PSS/E while running dynamic simulation ( 2014-03-30 23:33:31 -0500 )

10 0 Problems stopping PSS/E while running dynamic simulation ( 2014-03-30 23:33:30 -0500 )

10 0 how find optimal location of FCATS in PSSE? ( 2014-03-20 22:06:48 -0500 )

0 -5 Under/Overvoltage relay ( 2014-03-10 09:40:55 -0500 )

15 0 Under/Overvoltage relay ( 2014-03-10 09:40:42 -0500 )

10 0 Is this IEEE 39 bus dyr file right? ( 2014-03-06 13:55:07 -0500 )

10 0 Can someone please share the IEEE 9 bus system data, including generator and load data. ( 2014-02-21 12:39:32 -0500 )

10 0 How to merge several .SAV files in to one in PSS / E ( 2014-02-11 15:46:16 -0500 )

10 0 Can someone please share the IEEE 9 bus system data, including generator and load data. ( 2014-02-11 15:44:24 -0500 )

10 0 Previous versions of PSSE ( 2014-02-11 15:42:38 -0500 )

10 0 How can I do voltage stability analysis in PSSe? ( 2014-02-10 04:00:01 -0500 )

15 0 How should I sovle this problem? ( 2014-02-03 18:23:40 -0500 )

10 0 Can anybody help me with this PV Analysis Problem? ( 2014-01-09 17:14:13 -0500 )

10 0 Anyone can help me to debug the Python program? ( 2013-12-31 22:26:11 -0500 )

10 0 parallel dynamic simulations using python and PSS/E ( 2013-12-31 22:22:13 -0500 )

10 0 Can you help me to review a Python program for PSS/E simulation? ( 2013-12-31 21:56:17 -0500 )